Time;durP1;ratioP1;P1;durP2;ratioP2;P2;SDS_P1;SDS_P2;PMS_P1;PMS_P2;Temp;Humidity;BMP_temperature;BMP_pressure;BME280_temperature;BME280_humidity;BME280_pressure;Samples;Min_cycle;Max_cycle;Signal;HPM_P1;HPM_P2
2023/10/23 00:00:46;;;;;;;8.60;5.28;;;7.30;99.90;;;;;;5076035;28;20048;-82
2023/10/23 00:03:12;;;;;;;8.68;5.07;;;7.30;99.90;;;;;;5076099;28;20048;-82
2023/10/23 00:05:37;;;;;;;9.95;5.35;;;7.20;99.90;;;;;;5094039;28;20048;-81
2023/10/23 00:08:03;;;;;;;11.48;5.10;;;7.30;99.90;;;;;;5076233;28;20044;-81
2023/10/23 00:10:29;;;;;;;10.50;5.47;;;7.30;99.90;;;;;;5076206;28;20101;-82
2023/10/23 00:12:56;;;;;;;8.18;5.05;;;7.30;99.90;;;;;;5076146;28;20044;-82
2023/10/23 00:15:21;;;;;;;10.27;5.57;;;7.20;99.90;;;;;;5075912;28;20048;-82
2023/10/23 00:17:47;;;;;;;15.10;6.35;;;7.30;99.90;;;;;;5075975;28;20059;-82
2023/10/23 00:20:13;;;;;;;9.02;6.07;;;7.30;99.90;;;;;;5075777;28;20050;-82
2023/10/23 00:22:38;;;;;;;11.30;5.45;;;7.30;99.90;;;;;;5075651;28;20055;-82
2023/10/23 00:25:04;;;;;;;12.13;6.00;;;7.30;99.90;;;;;;5093749;28;20051;-82
2023/10/23 00:27:30;;;;;;;9.70;5.93;;;7.20;99.90;;;;;;5075708;28;20051;-82
2023/10/23 00:29:56;;;;;;;14.18;6.63;;;7.30;99.90;;;;;;5075559;28;20054;-82
2023/10/23 00:32:21;;;;;;;13.00;5.40;;;7.20;99.90;;;;;;5075518;28;20068;-82
2023/10/23 00:34:47;;;;;;;10.50;5.82;;;7.30;99.90;;;;;;5075502;28;20055;-82
2023/10/23 00:37:13;;;;;;;8.95;5.78;;;7.30;99.90;;;;;;5075526;28;20486;-82
2023/10/23 00:39:38;;;;;;;9.07;5.22;;;7.30;99.90;;;;;;5093495;28;20127;-82
2023/10/23 00:42:04;;;;;;;10.95;5.65;;;7.30;99.90;;;;;;5075826;28;20126;-82
2023/10/23 00:44:30;;;;;;;10.98;5.50;;;7.20;99.90;;;;;;5075392;28;20095;-82
2023/10/23 00:46:56;;;;;;;12.25;6.35;;;7.20;99.90;;;;;;5075399;28;20071;-82
2023/10/23 00:49:23;;;;;;;8.80;5.65;;;7.30;99.90;;;;;;5093736;28;20553;-82
2023/10/23 00:51:49;;;;;;;14.55;5.75;;;7.30;99.90;;;;;;5075527;28;20052;-82
2023/10/23 00:54:14;;;;;;;10.98;6.35;;;7.30;99.90;;;;;;5075469;28;20047;-82
2023/10/23 00:56:40;;;;;;;9.63;5.93;;;7.30;99.90;;;;;;5093469;28;20044;-82
2023/10/23 00:59:08;;;;;;;11.55;6.05;;;7.30;99.90;;;;;;5075553;28;20048;-81
2023/10/23 01:01:35;;;;;;;10.82;6.18;;;7.40;99.90;;;;;;5093574;28;20048;-82
2023/10/23 01:04:01;;;;;;;9.60;5.72;;;7.30;99.90;;;;;;5075586;28;20055;-82
2023/10/23 01:06:27;;;;;;;9.68;6.43;;;7.40;99.90;;;;;;5093610;28;20119;-81
2023/10/23 01:08:53;;;;;;;10.15;6.15;;;7.40;99.90;;;;;;5076579;28;20044;-82
2023/10/23 01:11:19;;;;;;;8.63;6.07;;;7.30;99.90;;;;;;5079548;28;20428;-82
2023/10/23 01:13:45;;;;;;;9.77;6.15;;;7.30;99.90;;;;;;5079064;28;20044;-82
2023/10/23 01:16:10;;;;;;;10.95;5.95;;;7.30;99.90;;;;;;5097316;28;20062;-82
2023/10/23 01:18:36;;;;;;;8.73;5.65;;;7.30;99.90;;;;;;5079385;28;20101;-82
2023/10/23 01:21:02;;;;;;;9.27;5.68;;;7.20;99.90;;;;;;5079093;28;20390;-82
2023/10/23 01:23:31;;;;;;;11.98;6.55;;;7.20;99.90;;;;;;5078892;28;20044;-82
2023/10/23 01:25:57;;;;;;;9.30;5.85;;;7.20;99.90;;;;;;5079239;28;20052;-82
2023/10/23 01:28:23;;;;;;;11.63;5.93;;;7.10;99.90;;;;;;5096943;28;20395;-81
2023/10/23 01:30:48;;;;;;;10.45;5.57;;;7.10;99.90;;;;;;5079300;28;20138;-81
2023/10/23 01:33:14;;;;;;;12.40;7.30;;;7.10;99.90;;;;;;5097140;28;20470;-82
2023/10/23 01:35:40;;;;;;;12.02;7.35;;;7.10;99.90;;;;;;5078837;28;20078;-82
2023/10/23 01:38:05;;;;;;;10.82;6.47;;;7.10;99.90;;;;;;5078647;28;20064;-81
2023/10/23 01:40:32;;;;;;;13.30;6.95;;;7.10;99.90;;;;;;5096827;28;20051;-81
2023/10/23 01:42:57;;;;;;;11.32;6.90;;;7.10;99.90;;;;;;5078767;28;20052;-81
2023/10/23 01:45:23;;;;;;;10.55;7.10;;;7.10;99.90;;;;;;5078337;28;20058;-82
2023/10/23 01:47:49;;;;;;;13.20;7.28;;;7.10;99.90;;;;;;5078603;28;20482;-82
2023/10/23 01:50:14;;;;;;;13.70;7.38;;;7.10;99.90;;;;;;5078591;28;20040;-82
2023/10/23 01:52:41;;;;;;;18.20;8.90;;;7.10;99.90;;;;;;5078486;28;20051;-82
2023/10/23 01:55:08;;;;;;;11.88;7.75;;;7.10;99.90;;;;;;5078245;28;20051;-82
2023/10/23 01:57:33;;;;;;;16.77;9.30;;;7.10;99.90;;;;;;5078250;28;20047;-82
2023/10/23 02:00:04;;;;;;;18.70;9.48;;;7.20;99.90;;;;;;5078185;28;20047;-82
2023/10/23 02:02:31;;;;;;;18.10;9.75;;;7.20;99.90;;;;;;5078231;28;20115;-82
2023/10/23 02:04:56;;;;;;;19.00;10.57;;;7.30;99.90;;;;;;5096102;28;20058;-82
2023/10/23 02:07:22;;;;;;;18.20;10.38;;;7.30;99.90;;;;;;5078286;28;20044;-82
2023/10/23 02:09:47;;;;;;;18.67;11.00;;;7.40;99.90;;;;;;5077944;28;20044;-82
2023/10/23 02:12:13;;;;;;;17.35;10.40;;;7.40;99.90;;;;;;5096248;28;20079;-82
2023/10/23 02:14:39;;;;;;;16.40;11.32;;;7.40;99.90;;;;;;5077916;28;20047;-82
2023/10/23 02:17:04;;;;;;;17.10;11.60;;;7.40;99.90;;;;;;5077630;28;20036;-82
2023/10/23 02:19:30;;;;;;;17.67;11.48;;;7.40;99.90;;;;;;5077926;28;20055;-82
2023/10/23 02:21:56;;;;;;;26.60;14.63;;;7.40;99.90;;;;;;5095216;28;20036;-82
2023/10/23 02:24:21;;;;;;;20.45;11.30;;;7.50;99.90;;;;;;5077434;28;20498;-81
2023/10/23 02:26:48;;;;;;;19.35;11.73;;;7.50;99.90;;;;;;5077778;28;20465;-82
2023/10/23 02:29:14;;;;;;;17.85;11.30;;;7.40;99.90;;;;;;5077919;28;20039;-82
2023/10/23 02:31:40;;;;;;;20.10;12.43;;;7.40;99.90;;;;;;5078028;28;20116;-82
2023/10/23 02:34:05;;;;;;;18.85;11.82;;;7.40;99.90;;;;;;5095806;28;20048;-82
2023/10/23 02:36:31;;;;;;;17.73;11.65;;;7.40;99.90;;;;;;5077833;28;20040;-82
2023/10/23 02:38:57;;;;;;;15.70;10.95;;;7.40;99.90;;;;;;5077394;28;20048;-82
2023/10/23 02:41:23;;;;;;;18.85;11.52;;;7.30;99.90;;;;;;5095572;28;20176;-82
2023/10/23 02:43:49;;;;;;;18.55;11.43;;;7.30;99.90;;;;;;5077569;28;20057;-81
2023/10/23 02:46:16;;;;;;;17.50;11.77;;;7.20;99.90;;;;;;5077396;28;20115;-81
2023/10/23 02:48:42;;;;;;;16.50;11.02;;;7.20;99.90;;;;;;5095591;28;20051;-81
2023/10/23 02:51:08;;;;;;;17.88;10.88;;;7.20;99.90;;;;;;5095566;28;20055;-81
2023/10/23 02:53:34;;;;;;;19.13;11.65;;;7.20;99.90;;;;;;5095076;28;20040;-81
2023/10/23 02:55:59;;;;;;;17.80;11.82;;;7.20;99.90;;;;;;5077160;28;20131;-82
2023/10/23 02:58:25;;;;;;;19.70;11.73;;;7.20;99.90;;;;;;5077135;28;20056;-82
2023/10/23 03:00:50;;;;;;;20.92;12.00;;;7.20;99.90;;;;;;5095445;28;20123;-82
2023/10/23 03:03:16;;;;;;;18.38;11.68;;;7.20;99.90;;;;;;5077136;28;20471;-82
2023/10/23 03:05:42;;;;;;;22.92;12.57;;;7.10;99.90;;;;;;5077050;28;20047;-82
2023/10/23 03:08:07;;;;;;;24.02;13.80;;;7.20;99.90;;;;;;5095170;28;20079;-82
2023/10/23 03:10:33;;;;;;;20.67;13.00;;;7.10;99.90;;;;;;5076919;28;20052;-82
2023/10/23 03:12:59;;;;;;;20.20;11.48;;;7.10;99.90;;;;;;5076604;28;20075;-82
2023/10/23 03:15:25;;;;;;;19.30;11.88;;;7.10;99.90;;;;;;5095041;28;20071;-82
2023/10/23 03:17:53;;;;;;;17.80;12.23;;;7.10;99.90;;;;;;5077042;28;20051;-82
2023/10/23 03:20:19;;;;;;;17.95;11.90;;;7.00;99.90;;;;;;5076855;28;20479;-82
2023/10/23 03:22:44;;;;;;;20.30;12.60;;;7.00;99.90;;;;;;5094754;28;20051;-82
2023/10/23 03:25:10;;;;;;;22.52;12.90;;;7.00;99.90;;;;;;5076486;28;20479;-82
2023/10/23 03:27:36;;;;;;;17.95;12.75;;;7.10;99.90;;;;;;5076221;28;20055;-82
2023/10/23 03:30:02;;;;;;;23.42;13.57;;;7.00;99.90;;;;;;5094804;28;20051;-82
2023/10/23 03:32:29;;;;;;;18.48;12.38;;;7.10;99.90;;;;;;5076446;28;20051;-82
2023/10/23 03:34:55;;;;;;;25.27;13.05;;;7.00;99.90;;;;;;5076120;28;20407;-82
2023/10/23 03:37:20;;;;;;;22.02;13.10;;;7.00;99.90;;;;;;5076336;28;20044;-82
2023/10/23 03:39:49;;;;;;;21.73;13.00;;;7.00;99.90;;;;;;5076368;28;20261;-82
2023/10/23 03:42:15;;;;;;;22.35;14.70;;;7.00;99.90;;;;;;5075934;28;20097;-83
2023/10/23 03:44:40;;;;;;;21.52;12.95;;;7.00;99.90;;;;;;5076621;28;20119;-83
2023/10/23 03:47:06;;;;;;;18.50;12.52;;;7.00;99.90;;;;;;5076317;28;20391;-83
2023/10/23 03:49:32;;;;;;;22.48;13.80;;;7.00;99.90;;;;;;5076176;28;20056;-83
2023/10/23 03:51:58;;;;;;;20.48;12.65;;;6.90;99.90;;;;;;5076373;28;20124;-83
2023/10/23 03:54:23;;;;;;;20.05;12.38;;;6.90;99.90;;;;;;5076109;28;20548;-83
2023/10/23 03:56:49;;;;;;;21.92;13.88;;;6.90;99.90;;;;;;5076351;28;20043;-83
2023/10/23 03:59:15;;;;;;;28.70;14.95;;;6.90;99.90;;;;;;5094298;28;20387;-83
2023/10/23 04:01:40;;;;;;;26.67;15.07;;;6.90;99.90;;;;;;5076283;28;20413;-83
2023/10/23 04:04:07;;;;;;;23.92;14.27;;;7.00;99.90;;;;;;5075897;28;20475;-83
2023/10/23 04:06:33;;;;;;;22.85;13.63;;;6.90;99.90;;;;;;5075971;28;20048;-83
2023/10/23 04:08:59;;;;;;;20.67;13.40;;;6.90;99.90;;;;;;5075733;28;20117;-83
2023/10/23 04:11:25;;;;;;;25.25;14.55;;;6.90;99.90;;;;;;5094116;28;20047;-82
2023/10/23 04:13:50;;;;;;;21.33;13.07;;;6.90;99.90;;;;;;5094076;28;20118;-83
2023/10/23 04:16:16;;;;;;;22.73;13.48;;;6.90;99.90;;;;;;5076164;28;20086;-83
2023/10/23 04:18:43;;;;;;;20.05;13.23;;;6.80;99.90;;;;;;5075713;28;20491;-83
2023/10/23 04:21:10;;;;;;;21.52;13.13;;;6.80;99.90;;;;;;5075951;28;20039;-83
2023/10/23 04:23:37;;;;;;;22.92;14.02;;;6.90;99.90;;;;;;5093894;28;20044;-83
2023/10/23 04:26:03;;;;;;;30.90;14.57;;;6.90;99.90;;;;;;5075914;28;20503;-83
2023/10/23 04:28:30;;;;;;;25.15;14.75;;;6.80;99.90;;;;;;5076260;28;20055;-83
2023/10/23 04:30:56;;;;;;;23.88;13.50;;;6.90;99.90;;;;;;5075696;28;20048;-83
2023/10/23 04:33:23;;;;;;;23.30;14.90;;;6.90;99.90;;;;;;5093813;28;20051;-83
2023/10/23 04:35:53;;;;;;;21.65;13.85;;;6.90;99.90;;;;;;5075794;28;20052;-83
2023/10/23 04:38:19;;;;;;;22.65;13.48;;;6.90;99.90;;;;;;5075291;28;20059;-83
2023/10/23 04:40:48;;;;;;;22.33;13.70;;;6.90;99.90;;;;;;5075690;28;20056;-83
2023/10/23 04:43:14;;;;;;;25.83;15.70;;;6.90;99.90;;;;;;5075737;28;20383;-83
2023/10/23 04:45:40;;;;;;;24.20;14.50;;;6.90;99.90;;;;;;5079763;28;20479;-83
2023/10/23 04:48:06;;;;;;;20.52;12.90;;;6.90;99.90;;;;;;5079930;28;20048;-83
2023/10/23 04:50:33;;;;;;;20.17;13.75;;;6.90;99.90;;;;;;5097591;28;20510;-83
2023/10/23 04:53:01;;;;;;;19.60;12.68;;;6.80;99.90;;;;;;5097721;28;20044;-83
2023/10/23 04:55:38;;;;;;;20.88;12.77;;;6.80;99.90;;;;;;5079368;28;20044;-83
2023/10/23 04:58:05;;;;;;;23.25;13.30;;;6.80;99.90;;;;;;5079515;28;20044;-83
2023/10/23 05:00:34;;;;;;;24.33;12.82;;;6.80;99.90;;;;;;5079701;28;20097;-83
2023/10/23 05:03:00;;;;;;;20.77;12.55;;;6.80;99.90;;;;;;5097439;28;20119;-83
2023/10/23 05:05:26;;;;;;;19.30;12.95;;;6.80;99.90;;;;;;5079330;28;20136;-83
2023/10/23 05:07:51;;;;;;;17.20;11.88;;;6.80;99.90;;;;;;5079793;28;20051;-83
2023/10/23 05:10:17;;;;;;;17.23;11.05;;;6.80;99.90;;;;;;5079335;28;20397;-83
2023/10/23 05:12:43;;;;;;;21.15;13.80;;;6.70;99.90;;;;;;5097425;28;20041;-83
2023/10/23 05:15:09;;;;;;;20.30;12.23;;;6.70;99.90;;;;;;5079513;28;20047;-83
2023/10/23 05:17:35;;;;;;;19.42;11.88;;;6.70;99.90;;;;;;5097415;28;20439;-83
2023/10/23 05:20:01;;;;;;;19.25;11.07;;;6.60;99.90;;;;;;5078930;28;20052;-83
2023/10/23 05:22:27;;;;;;;20.98;13.13;;;6.60;99.90;;;;;;5079306;28;20051;-83
2023/10/23 05:24:52;;;;;;;20.63;12.45;;;6.60;99.90;;;;;;5079200;28;20044;-83
2023/10/23 05:27:18;;;;;;;19.77;13.23;;;6.60;99.90;;;;;;5079165;28;20051;-83
2023/10/23 05:29:44;;;;;;;19.65;11.68;;;6.60;99.90;;;;;;5097020;28;20040;-83
2023/10/23 05:32:09;;;;;;;19.65;11.88;;;6.60;99.90;;;;;;5079391;28;20048;-83
2023/10/23 05:34:35;;;;;;;22.48;11.30;;;6.60;99.90;;;;;;5078723;28;20387;-83
2023/10/23 05:37:01;;;;;;;18.35;12.23;;;6.50;99.90;;;;;;5078365;28;20046;-83
2023/10/23 05:39:28;;;;;;;22.10;12.93;;;6.60;99.90;;;;;;5058660;28;20400;-83
2023/10/23 05:41:54;;;;;;;21.48;13.18;;;6.60;99.90;;;;;;5058900;28;20477;-83
2023/10/23 05:44:20;;;;;;;24.27;14.10;;;6.60;99.90;;;;;;5058743;28;20055;-84
2023/10/23 05:46:45;;;;;;;22.00;14.10;;;6.60;99.90;;;;;;5058515;28;20072;-84
2023/10/23 05:49:11;;;;;;;22.20;12.00;;;6.60;99.90;;;;;;5058619;28;20123;-84
2023/10/23 05:51:37;;;;;;;23.25;12.98;;;6.50;99.90;;;;;;5058702;28;20052;-84
2023/10/23 05:54:03;;;;;;;19.48;13.15;;;6.60;99.90;;;;;;5058739;28;20040;-84
2023/10/23 05:56:29;;;;;;;22.75;13.90;;;6.50;99.90;;;;;;5058428;28;20123;-84
2023/10/23 05:58:54;;;;;;;22.52;12.77;;;6.50;99.90;;;;;;5058412;28;20436;-84
2023/10/23 06:01:20;;;;;;;19.92;12.73;;;6.40;99.90;;;;;;5058223;28;20079;-83
2023/10/23 06:03:46;;;;;;;21.63;13.32;;;6.50;99.90;;;;;;5076189;28;20034;-84
2023/10/23 06:06:12;;;;;;;24.58;14.75;;;6.50;99.90;;;;;;5058172;28;20047;-84
2023/10/23 06:08:39;;;;;;;19.38;12.32;;;6.50;99.90;;;;;;5057094;28;20438;-84
2023/10/23 06:11:08;;;;;;;23.98;14.73;;;6.50;99.90;;;;;;5075742;28;20426;-83
2023/10/23 06:13:34;;;;;;;25.05;15.05;;;6.50;99.90;;;;;;5057559;28;20052;-83
2023/10/23 06:16:04;;;;;;;35.30;16.67;;;6.60;99.90;;;;;;5057488;28;20036;-84
2023/10/23 06:18:36;;;;;;;34.63;17.30;;;6.80;99.90;;;;;;5057602;28;20044;-85
2023/10/23 06:21:03;;;;;;;30.93;16.23;;;6.90;99.90;;;;;;5058025;28;20047;-83
2023/10/23 06:23:33;;;;;;;30.95;16.27;;;7.00;99.90;;;;;;5075743;28;20093;-84
2023/10/23 06:25:59;;;;;;;31.48;16.15;;;7.10;99.90;;;;;;5057400;28;20487;-84
2023/10/23 06:28:26;;;;;;;31.20;17.67;;;7.00;99.90;;;;;;5057764;28;20040;-83
2023/10/23 06:30:51;;;;;;;30.40;16.20;;;7.00;99.90;;;;;;5057855;28;20052;-83
2023/10/23 06:33:17;;;;;;;25.58;15.57;;;7.00;99.90;;;;;;5075500;28;20040;-83
2023/10/23 06:35:43;;;;;;;28.90;17.10;;;7.10;99.90;;;;;;5057495;28;20083;-83
2023/10/23 06:38:08;;;;;;;30.65;16.15;;;7.10;99.90;;;;;;5057075;28;20135;-83
2023/10/23 06:40:34;;;;;;;27.98;15.07;;;7.10;99.90;;;;;;5057433;28;20048;-83
2023/10/23 06:43:00;;;;;;;27.08;15.52;;;7.10;99.90;;;;;;5057353;28;20055;-83
2023/10/23 06:45:25;;;;;;;26.85;15.05;;;7.00;99.90;;;;;;5075117;28;20047;-86
2023/10/23 06:47:51;;;;;;;25.08;14.45;;;7.10;99.90;;;;;;5057457;28;20079;-85
2023/10/23 06:50:17;;;;;;;29.20;18.13;;;7.00;99.90;;;;;;5057402;28;20060;-83
2023/10/23 06:52:44;;;;;;;29.13;17.75;;;7.00;99.90;;;;;;5075288;28;20483;-82
2023/10/23 06:55:09;;;;;;;28.38;19.60;;;6.90;99.90;;;;;;5057300;28;20056;-82
2023/10/23 06:57:35;;;;;;;26.92;19.05;;;6.90;99.90;;;;;;5057273;28;20048;-82
2023/10/23 07:00:01;;;;;;;27.65;17.85;;;6.80;99.90;;;;;;5056965;28;20127;-82
2023/10/23 07:02:26;;;;;;;27.08;18.85;;;6.80;99.90;;;;;;5056865;28;20056;-82
2023/10/23 07:04:53;;;;;;;23.13;15.65;;;6.80;99.90;;;;;;5056884;28;20040;-81
2023/10/23 07:07:18;;;;;;;24.38;14.85;;;6.80;99.90;;;;;;5056245;28;20049;-81
2023/10/23 07:09:44;;;;;;;22.55;13.98;;;6.80;99.90;;;;;;5074908;28;20097;-82
2023/10/23 07:12:09;;;;;;;19.92;13.60;;;6.80;99.90;;;;;;5056720;28;20423;-81
2023/10/23 07:14:35;;;;;;;23.55;14.20;;;6.90;99.90;;;;;;5056950;28;20132;-81
2023/10/23 07:17:01;;;;;;;25.45;14.52;;;6.90;99.90;;;;;;5074806;28;20036;-83
2023/10/23 07:19:26;;;;;;;27.35;15.88;;;7.00;99.90;;;;;;5069306;28;20433;-78
2023/10/23 07:21:52;;;;;;;26.15;15.48;;;7.00;99.90;;;;;;5045202;28;20044;-81
2023/10/23 07:24:17;;;;;;;30.02;16.67;;;7.10;99.90;;;;;;5036351;28;20049;-81
2023/10/23 07:26:43;;;;;;;24.98;15.82;;;7.20;99.90;;;;;;5054252;28;20132;-82
2023/10/23 07:29:08;;;;;;;26.30;14.85;;;7.20;99.90;;;;;;5036596;28;20044;-82
2023/10/23 07:31:38;;;;;;;29.92;17.33;;;7.30;99.90;;;;;;5038149;28;20476;-80
2023/10/23 07:34:04;;;;;;;32.50;20.73;;;7.40;99.90;;;;;;5063092;28;20052;-80
2023/10/23 07:36:30;;;;;;;35.55;21.23;;;7.40;99.90;;;;;;5054028;28;20041;-82
2023/10/23 07:38:56;;;;;;;31.75;21.40;;;7.50;99.90;;;;;;5052024;28;20086;-80
2023/10/23 07:41:21;;;;;;;34.30;21.75;;;7.60;99.90;;;;;;5055997;28;20048;-81
2023/10/23 07:43:47;;;;;;;34.03;22.70;;;7.70;99.90;;;;;;5073593;28;20048;-82
2023/10/23 07:46:13;;;;;;;39.38;23.38;;;7.70;99.90;;;;;;5056119;28;20052;-81
2023/10/23 07:48:39;;;;;;;40.80;27.52;;;7.80;99.90;;;;;;5055886;28;20048;-81
2023/10/23 07:51:05;;;;;;;44.55;29.10;;;7.90;99.90;;;;;;5073576;28;20082;-81
2023/10/23 07:53:32;;;;;;;45.33;29.20;;;7.90;99.90;;;;;;5055405;28;20071;-81
2023/10/23 07:55:59;;;;;;;40.35;27.67;;;7.90;99.90;;;;;;5073594;28;20460;-80
2023/10/23 07:58:24;;;;;;;35.55;21.05;;;8.00;99.90;;;;;;5055843;28;20056;-82
2023/10/23 08:00:53;;;;;;;33.08;18.17;;;8.10;99.90;;;;;;5055575;28;20041;-80
2023/10/23 08:03:19;;;;;;;31.00;17.23;;;8.30;99.90;;;;;;5055648;28;20502;-81
2023/10/23 08:05:45;;;;;;;28.80;16.88;;;8.30;99.90;;;;;;5073687;28;20044;-81
2023/10/23 08:08:10;;;;;;;31.70;18.50;;;8.50;99.90;;;;;;5055352;28;20048;-81
2023/10/23 08:10:36;;;;;;;31.65;17.00;;;8.60;99.90;;;;;;5055540;28;20048;-82
2023/10/23 08:13:02;;;;;;;29.38;17.08;;;8.60;99.90;;;;;;5056067;28;20105;-82
2023/10/23 08:15:27;;;;;;;29.65;17.25;;;8.80;99.90;;;;;;5055494;28;20048;-82
2023/10/23 08:17:53;;;;;;;30.30;17.63;;;8.80;99.90;;;;;;5054900;28;20495;-81
2023/10/23 08:20:19;;;;;;;33.58;18.83;;;8.90;99.90;;;;;;5054759;28;20048;-80
2023/10/23 08:22:45;;;;;;;29.42;17.15;;;9.00;99.90;;;;;;5055460;28;20052;-81
2023/10/23 08:25:11;;;;;;;29.77;17.63;;;9.10;99.90;;;;;;5055314;28;20044;-81
2023/10/23 08:27:36;;;;;;;26.75;15.90;;;9.20;99.90;;;;;;5073462;28;20505;-82
2023/10/23 08:30:04;;;;;;;28.80;16.42;;;9.20;99.90;;;;;;5055222;28;20059;-82
2023/10/23 08:32:30;;;;;;;25.75;15.13;;;9.30;99.90;;;;;;5073476;28;20040;-81
2023/10/23 08:34:56;;;;;;;24.50;14.18;;;9.40;99.90;;;;;;5055418;28;20127;-81
2023/10/23 08:37:24;;;;;;;27.33;15.10;;;9.40;99.90;;;;;;5055096;28;20131;-81
2023/10/23 08:39:52;;;;;;;24.48;14.15;;;9.50;99.90;;;;;;5055019;28;20128;-79
2023/10/23 08:42:18;;;;;;;22.85;14.10;;;9.60;99.90;;;;;;5073465;28;20041;-79
2023/10/23 08:44:45;;;;;;;24.38;13.68;;;9.70;99.90;;;;;;5055058;28;20043;-79
2023/10/23 08:47:10;;;;;;;22.85;12.63;;;9.80;99.90;;;;;;5072979;28;20048;-79
2023/10/23 08:49:36;;;;;;;22.13;13.02;;;9.90;99.90;;;;;;5055058;28;20056;-79
2023/10/23 08:52:04;;;;;;;22.73;13.93;;;9.90;99.90;;;;;;5055030;28;20048;-79
2023/10/23 08:54:30;;;;;;;27.08;12.88;;;10.00;99.90;;;;;;5054917;28;20048;-78
2023/10/23 08:57:06;;;;;;;19.55;12.20;;;10.10;99.90;;;;;;5055284;28;20135;-79
2023/10/23 08:59:31;;;;;;;17.58;11.85;;;10.20;99.90;;;;;;5072886;28;20079;-79
2023/10/23 09:01:57;;;;;;;20.10;12.10;;;10.30;99.90;;;;;;5055168;28;20084;-80
2023/10/23 09:04:23;;;;;;;22.90;14.15;;;10.40;99.90;;;;;;5072562;28;20051;-79
2023/10/23 09:06:48;;;;;;;17.50;11.32;;;10.50;99.90;;;;;;5073076;28;20056;-79
2023/10/23 09:09:15;;;;;;;18.25;11.40;;;10.60;99.90;;;;;;5054957;28;20042;-79
2023/10/23 09:11:44;;;;;;;19.17;11.85;;;10.60;99.90;;;;;;5054856;28;20119;-78
2023/10/23 09:14:22;;;;;;;17.85;12.00;;;10.80;99.90;;;;;;5054617;28;20049;-79
2023/10/23 09:16:48;;;;;;;16.80;11.07;;;10.80;99.90;;;;;;5054746;28;20056;-78
2023/10/23 09:19:27;;;;;;;14.98;10.30;;;10.90;99.90;;;;;;5055146;28;20169;-78
2023/10/23 09:21:56;;;;;;;20.20;10.35;;;11.00;99.90;;;;;;5054714;28;20048;-78
2023/10/23 09:24:23;;;;;;;14.55;8.30;;;11.10;99.90;;;;;;5054731;28;20052;-78
2023/10/23 09:26:50;;;;;;;15.77;8.25;;;11.10;99.90;;;;;;5054652;28;20111;-78
2023/10/23 09:29:20;;;;;;;12.95;7.47;;;11.30;99.90;;;;;;5054709;28;20052;-78
2023/10/23 09:31:45;;;;;;;10.75;5.03;;;11.40;99.90;;;;;;5076343;28;20051;-78
2023/10/23 09:34:12;;;;;;;7.75;4.55;;;11.40;99.90;;;;;;5076547;28;20044;-78
2023/10/23 09:36:38;;;;;;;7.90;4.20;;;11.50;99.90;;;;;;5076253;28;20032;-81
2023/10/23 09:39:06;;;;;;;8.13;4.15;;;11.60;99.90;;;;;;5057824;28;20407;-79
2023/10/23 09:41:32;;;;;;;8.98;4.00;;;11.70;99.90;;;;;;5058218;28;20048;-78
2023/10/23 09:43:58;;;;;;;10.60;3.92;;;11.80;99.90;;;;;;5058256;28;20059;-79
2023/10/23 09:46:25;;;;;;;7.13;3.53;;;11.90;99.90;;;;;;5075935;28;20048;-79
2023/10/23 09:48:52;;;;;;;7.28;4.10;;;12.10;99.90;;;;;;5058388;28;20511;-79
2023/10/23 09:51:21;;;;;;;7.15;3.95;;;12.10;99.90;;;;;;5058239;28;20052;-78
2023/10/23 09:53:59;;;;;;;7.93;3.95;;;12.20;99.90;;;;;;5075678;28;20048;-79
2023/10/23 09:56:31;;;;;;;7.72;4.30;;;12.30;99.90;;;;;;5075783;28;20087;-78
2023/10/23 09:59:04;;;;;;;7.85;4.45;;;12.40;99.90;;;;;;5058318;28;20056;-79
2023/10/23 10:01:50;;;;;;;;;;;12.40;99.90;;;;;;5058270;28;20052;-78
2023/10/23 10:04:48;;;;;;;10.00;4.78;;;12.50;99.90;;;;;;5057247;28;20015;-78
2023/10/23 10:07:48;;;;;;;7.32;3.78;;;12.60;99.90;;;;;;5075828;28;20090;-80
2023/10/23 10:10:14;;;;;;;9.20;4.03;;;12.60;99.90;;;;;;5075733;28;20484;-78
2023/10/23 10:12:42;;;;;;;8.30;4.97;;;12.70;99.90;;;;;;5075704;28;20040;-78
2023/10/23 10:15:12;;;;;;;8.23;5.25;;;12.80;99.90;;;;;;5057788;28;20044;-79
2023/10/23 10:17:39;;;;;;;8.57;5.15;;;12.80;99.90;;;;;;5057890;28;20087;-79
2023/10/23 10:20:09;;;;;;;11.15;5.03;;;12.90;99.90;;;;;;5075310;28;20051;-78
2023/10/23 10:22:38;;;;;;;8.98;5.15;;;12.90;99.90;;;;;;5057541;28;20391;-78
2023/10/23 10:25:06;;;;;;;9.68;5.50;;;13.00;99.90;;;;;;5057392;28;20143;-78
2023/10/23 10:27:32;;;;;;;8.93;4.60;;;13.10;99.90;;;;;;5057326;28;20048;-78
2023/10/23 10:30:06;;;;;;;8.85;5.25;;;13.20;99.90;;;;;;5108204;28;20494;-79
2023/10/23 10:32:35;;;;;;;7.05;4.50;;;13.30;99.90;;;;;;5097848;28;20123;-79
2023/10/23 10:35:03;;;;;;;7.93;3.90;;;13.30;99.90;;;;;;5097697;28;20119;-79
2023/10/23 10:37:31;;;;;;;7.25;4.18;;;13.30;99.90;;;;;;5097398;28;20056;-79
2023/10/23 10:39:56;;;;;;;7.13;3.50;;;13.40;99.90;;;;;;5097032;28;20055;-77
2023/10/23 10:42:29;;;;;;;6.38;3.58;;;13.50;99.90;;;;;;5115008;28;20039;-78
2023/10/23 10:44:56;;;;;;;7.07;3.80;;;13.50;99.90;;;;;;5115890;28;20051;-78
2023/10/23 10:47:54;;;;;;;5.45;3.30;;;13.60;99.90;;;;;;5097194;28;20050;-78
2023/10/23 10:50:31;;;;;;;4.70;2.72;;;13.70;99.90;;;;;;5097420;28;20482;-78
2023/10/23 10:53:02;;;;;;;8.30;3.20;;;13.70;99.90;;;;;;5115794;28;20047;-78
2023/10/23 10:55:28;;;;;;;7.10;3.58;;;13.70;99.90;;;;;;5097519;28;20047;-79
2023/10/23 10:57:55;;;;;;;7.85;4.07;;;13.80;99.90;;;;;;5097249;28;20611;-77
2023/10/23 11:00:22;;;;;;;6.70;3.47;;;13.80;99.90;;;;;;5097115;28;20129;-78
2023/10/23 11:02:49;;;;;;;7.00;3.53;;;14.00;99.90;;;;;;5096990;28;20048;-77
2023/10/23 11:05:14;;;;;;;7.72;4.35;;;14.10;99.90;;;;;;5114938;28;20465;-77
2023/10/23 11:07:40;;;;;;;7.10;3.30;;;14.00;99.90;;;;;;5097092;28;20598;-77
2023/10/23 11:10:06;;;;;;;8.75;3.03;;;14.10;99.90;;;;;;5097018;28;20050;-77
2023/10/23 11:12:32;;;;;;;7.53;3.42;;;14.00;99.90;;;;;;5115449;28;20101;-77
2023/10/23 11:14:58;;;;;;;4.88;2.90;;;14.00;99.90;;;;;;5114537;28;20055;-77
2023/10/23 11:17:24;;;;;;;7.00;3.10;;;14.00;99.90;;;;;;5114840;28;20051;-77
2023/10/23 11:19:49;;;;;;;5.70;2.63;;;14.10;99.90;;;;;;5115148;28;20043;-77
2023/10/23 11:22:18;;;;;;;4.18;1.90;;;14.10;99.90;;;;;;5096681;28;20040;-77
2023/10/23 11:24:45;;;;;;;3.95;1.95;;;14.10;99.90;;;;;;5096347;28;20055;-77
2023/10/23 11:27:10;;;;;;;7.00;2.70;;;14.10;99.90;;;;;;5096727;28;20043;-77
2023/10/23 11:29:37;;;;;;;4.25;2.10;;;14.20;99.90;;;;;;5115083;28;20054;-78
2023/10/23 11:32:03;;;;;;;3.72;2.10;;;14.10;99.90;;;;;;5114957;28;20048;-78
2023/10/23 11:34:29;;;;;;;6.30;2.80;;;14.10;99.90;;;;;;5096206;28;20047;-78
2023/10/23 11:36:55;;;;;;;3.67;2.55;;;14.20;99.90;;;;;;5114931;28;20096;-77
2023/10/23 11:39:21;;;;;;;4.28;1.92;;;14.20;99.90;;;;;;5096275;28;20071;-78
2023/10/23 11:41:54;;;;;;;4.53;1.98;;;14.30;99.90;;;;;;5096228;28;20119;-78
2023/10/23 11:44:25;;;;;;;6.43;1.92;;;14.20;99.90;;;;;;5114364;28;20486;-77
2023/10/23 11:46:59;;;;;;;3.33;1.50;;;14.20;99.90;;;;;;5096139;28;20051;-77
2023/10/23 11:49:25;;;;;;;4.03;1.20;;;14.40;99.90;;;;;;5096250;28;20047;-78
2023/10/23 11:51:52;;;;;;;2.90;1.20;;;14.30;99.90;;;;;;5114494;28;20036;-77
2023/10/23 11:54:18;;;;;;;3.60;1.20;;;14.40;99.90;;;;;;5096140;28;20419;-77
2023/10/23 11:56:44;;;;;;;3.10;0.80;;;14.40;99.90;;;;;;5095959;28;20067;-77
2023/10/23 11:59:20;;;;;;;3.30;1.15;;;14.50;99.90;;;;;;5114236;28;20046;-77
2023/10/23 12:01:47;;;;;;;3.85;1.13;;;14.40;99.90;;;;;;5095856;28;20043;-77
2023/10/23 12:04:13;;;;;;;4.30;1.10;;;14.50;99.90;;;;;;5096132;28;20044;-77
2023/10/23 12:06:40;;;;;;;2.75;1.23;;;14.50;99.90;;;;;;5114221;28;20044;-77
2023/10/23 12:09:06;;;;;;;4.90;1.60;;;14.40;99.90;;;;;;5113884;28;20043;-77
2023/10/23 12:11:33;;;;;;;2.95;1.27;;;14.40;99.90;;;;;;5095739;28;20122;-77
2023/10/23 12:14:00;;;;;;;2.95;0.95;;;14.50;99.90;;;;;;5095742;28;20051;-78
2023/10/23 12:16:27;;;;;;;1.92;1.10;;;14.50;99.90;;;;;;5096048;28;20043;-78
2023/10/23 12:18:52;;;;;;;4.10;1.30;;;14.40;99.90;;;;;;5095788;28;20047;-78
2023/10/23 12:21:21;;;;;;;3.88;1.15;;;14.40;99.90;;;;;;5114088;28;20093;-78
2023/10/23 12:23:47;;;;;;;5.07;1.20;;;14.30;99.90;;;;;;5095861;28;20542;-78
2023/10/23 12:26:13;;;;;;;5.90;2.10;;;14.40;99.90;;;;;;5095537;28;20047;-78
2023/10/23 12:28:38;;;;;;;3.92;1.83;;;14.40;99.90;;;;;;5095880;28;20048;-78
2023/10/23 12:31:04;;;;;;;8.15;2.40;;;14.50;99.90;;;;;;5095796;28;20056;-77
2023/10/23 12:33:33;;;;;;;4.93;2.22;;;14.50;99.90;;;;;;5112322;28;20087;-77
2023/10/23 12:36:05;;;;;;;4.00;2.03;;;14.40;99.90;;;;;;5113988;28;20039;-79
2023/10/23 12:38:33;;;;;;;5.03;1.97;;;14.50;99.90;;;;;;5095423;28;20047;-79